createdAt,value
2023-06-18T00:00:59.434Z,98973.13
2023-06-18T00:03:47.802Z,98968.47
2023-06-18T00:06:35.637Z,98972.56
2023-06-18T00:09:25.104Z,98958.25
2023-06-18T00:12:13.095Z,98964.66
2023-06-18T00:15:01.123Z,98960.22
2023-06-18T00:17:50.411Z,98953.50
2023-06-18T00:20:38.460Z,98959.19
2023-06-18T00:23:26.431Z,98970.00
2023-06-18T00:26:14.396Z,98970.88
2023-06-18T00:29:02.306Z,98972.09
2023-06-18T00:31:50.247Z,98976.94
2023-06-18T00:34:42.946Z,98981.47
2023-06-18T00:37:31.203Z,98993.09
2023-06-18T00:40:19.017Z,98987.91
2023-06-18T00:43:08.052Z,98989.13
2023-06-18T00:45:55.999Z,98988.84
2023-06-18T00:48:46.348Z,98982.03
2023-06-18T00:51:36.159Z,98981.22
2023-06-18T00:54:24.485Z,98990.78
2023-06-18T00:57:15.449Z,98995.88
2023-06-18T01:00:06.224Z,98997.38
2023-06-18T01:02:54.976Z,98992.28
2023-06-18T01:05:43.462Z,98993.66
2023-06-18T01:08:34.289Z,98997.50
2023-06-18T01:11:23.120Z,99006.78
2023-06-18T01:14:11.378Z,98998.81
2023-06-18T01:17:01.074Z,99014.63
2023-06-18T01:19:53.134Z,99018.97
2023-06-18T01:22:47.533Z,99013.75
2023-06-18T01:25:38.793Z,99017.50
2023-06-18T01:28:30.397Z,99018.69
2023-06-18T01:31:21.963Z,99016.84
2023-06-18T01:34:10.094Z,99020.19
2023-06-18T01:37:04.989Z,99034.28
2023-06-18T01:39:59.036Z,99045.53
2023-06-18T01:42:53.602Z,99040.78
2023-06-18T01:45:43.517Z,99039.50
2023-06-18T01:48:37.964Z,99037.94
2023-06-18T01:51:26.654Z,99048.41
2023-06-18T01:54:16.216Z,99051.78
2023-06-18T01:57:05.151Z,99052.38
2023-06-18T01:59:54.250Z,99068.75
2023-06-18T02:02:42.375Z,99069.59
2023-06-18T02:05:30.675Z,99065.69
2023-06-18T02:08:18.726Z,99072.47
2023-06-18T02:11:06.439Z,99073.00
2023-06-18T02:13:54.253Z,99078.78
2023-06-18T02:16:44.091Z,99080.91
2023-06-18T02:19:32.049Z,99078.78
2023-06-18T02:22:19.883Z,99088.81
2023-06-18T02:25:08.340Z,99082.97
2023-06-18T02:27:56.534Z,99081.09
2023-06-18T02:30:44.373Z,99082.31
2023-06-18T02:33:33.770Z,99082.31
2023-06-18T02:36:21.601Z,99086.88
2023-06-18T02:39:10.088Z,99083.13
2023-06-18T02:41:57.779Z,99096.81
2023-06-18T02:44:46.913Z,99092.38
2023-06-18T02:47:34.640Z,99081.09
2023-06-18T02:50:24.166Z,99087.25
2023-06-18T02:53:12.065Z,99093.63
2023-06-18T02:55:59.763Z,99095.50
2023-06-18T02:58:50.564Z,99099.88
2023-06-18T03:01:38.612Z,99105.72
2023-06-18T03:04:26.595Z,99116.13
2023-06-18T03:07:15.904Z,99116.69
2023-06-18T03:10:04.218Z,99093.44
2023-06-18T03:12:52.030Z,99123.00
2023-06-18T03:15:39.838Z,99122.63
2023-06-18T03:18:27.637Z,99120.78
2023-06-18T03:21:16.457Z,99116.59
2023-06-18T03:24:06.644Z,99122.16
2023-06-18T03:26:54.609Z,99121.44
2023-06-18T03:29:42.979Z,99122.25
2023-06-18T03:32:30.927Z,99125.88
2023-06-18T03:35:19.776Z,99122.63
2023-06-18T03:38:07.592Z,99120.22
2023-06-18T03:40:57.026Z,99124.94
2023-06-18T03:43:44.772Z,99126.63
2023-06-18T03:46:33.321Z,99117.91
2023-06-18T03:49:21.045Z,99125.34
2023-06-18T03:52:09.608Z,99121.78
2023-06-18T03:54:57.415Z,99132.00
2023-06-18T03:57:46.766Z,99131.56
2023-06-18T04:00:35.822Z,99131.00
2023-06-18T04:03:23.996Z,99138.16
2023-06-18T04:06:12.398Z,99141.94
2023-06-18T04:09:00.161Z,99137.44
2023-06-18T04:11:47.955Z,99144.66
2023-06-18T04:14:37.739Z,99148.03
2023-06-18T04:17:27.982Z,99121.41
2023-06-18T04:20:16.036Z,99059.75
2023-06-18T04:23:04.110Z,99149.13
2023-06-18T04:25:52.324Z,99141.13
2023-06-18T04:28:40.061Z,99143.38
2023-06-18T04:31:29.363Z,99150.13
2023-06-18T04:34:17.549Z,99139.81
2023-06-18T04:37:05.770Z,99151.13
2023-06-18T04:39:53.542Z,99153.66
2023-06-18T04:42:41.335Z,99151.50
2023-06-18T04:45:29.049Z,99158.53
2023-06-18T04:48:18.773Z,99158.16
2023-06-18T04:51:06.573Z,99162.34
2023-06-18T04:53:54.390Z,99169.66
2023-06-18T04:56:42.199Z,99171.88
2023-06-18T04:59:30.142Z,99175.28
2023-06-18T05:02:19.163Z,99171.63
2023-06-18T05:05:09.462Z,99181.28
2023-06-18T05:07:57.806Z,99173.06
2023-06-18T05:10:45.654Z,99180.19
2023-06-18T05:13:33.454Z,99177.44
2023-06-18T05:16:21.276Z,99181.66
2023-06-18T05:19:09.091Z,99184.16
2023-06-18T05:21:59.263Z,99157.69
2023-06-18T05:24:47.453Z,99194.00
2023-06-18T05:27:35.269Z,99188.72
2023-06-18T05:30:23.765Z,99195.25
2023-06-18T05:33:11.862Z,99203.22
2023-06-18T05:36:00.307Z,99197.28
2023-06-18T05:38:49.655Z,99201.19
2023-06-18T05:41:37.361Z,99205.72
2023-06-18T05:44:25.296Z,99199.50
2023-06-18T05:47:13.059Z,99206.31
2023-06-18T05:50:01.013Z,99214.16
2023-06-18T05:52:49.957Z,99205.84
2023-06-18T05:55:39.066Z,99210.44
2023-06-18T05:58:27.134Z,99216.09
2023-06-18T06:01:15.586Z,99215.50
2023-06-18T06:04:03.894Z,99227.75
2023-06-18T06:06:51.760Z,99228.19
2023-06-18T06:09:39.641Z,99230.44
2023-06-18T06:12:28.790Z,99221.50
2023-06-18T06:15:17.126Z,99226.31
2023-06-18T06:18:05.000Z,99229.38
2023-06-18T06:20:53.005Z,99237.41
2023-06-18T06:23:41.243Z,99232.91
2023-06-18T06:26:29.037Z,99233.31
2023-06-18T06:29:18.192Z,99237.66
2023-06-18T06:32:06.886Z,99245.66
2023-06-18T06:34:54.613Z,99243.78
2023-06-18T06:37:42.288Z,99240.50
2023-06-18T06:40:30.267Z,99230.25
2023-06-18T06:43:17.989Z,99238.03
2023-06-18T06:46:07.417Z,99230.16
2023-06-18T06:48:55.149Z,99247.88
2023-06-18T06:51:44.361Z,99233.75
2023-06-18T06:54:32.386Z,99244.63
2023-06-18T06:57:20.158Z,99236.53
2023-06-18T07:00:09.573Z,99248.38
2023-06-18T07:02:58.704Z,99251.31
2023-06-18T07:05:46.664Z,99247.19
2023-06-18T07:08:34.433Z,99247.47
2023-06-18T07:11:22.737Z,99251.91
2023-06-18T07:14:10.511Z,99257.63
2023-06-18T07:16:58.490Z,99256.53
2023-06-18T07:19:47.654Z,99257.34
2023-06-18T07:22:35.784Z,99274.00
2023-06-18T07:25:23.470Z,99276.72
2023-06-18T07:28:11.416Z,99269.00
2023-06-18T07:30:59.127Z,99265.69
2023-06-18T07:33:46.890Z,99272.78
2023-06-18T07:36:36.250Z,99274.00
2023-06-18T07:39:23.970Z,99272.19
2023-06-18T07:42:13.260Z,99263.47
2023-06-18T07:45:01.331Z,99270.00
2023-06-18T07:47:49.212Z,99287.31
2023-06-18T07:50:37.286Z,99284.84
2023-06-18T07:53:26.891Z,99280.47
2023-06-18T07:56:14.895Z,99285.41
2023-06-18T07:59:02.979Z,99281.91
2023-06-18T08:01:51.539Z,99285.03
2023-06-18T08:04:40.062Z,99282.34
2023-06-18T08:07:28.239Z,99276.72
2023-06-18T08:10:17.270Z,99287.81
2023-06-18T08:13:05.077Z,99278.03
2023-06-18T08:15:52.768Z,99284.03
2023-06-18T08:18:40.649Z,99277.56
2023-06-18T08:21:28.399Z,99277.59
2023-06-18T08:24:16.406Z,99278.03
2023-06-18T08:27:06.367Z,99277.34
2023-06-18T08:29:54.592Z,99283.81
2023-06-18T08:32:42.332Z,99275.00
2023-06-18T08:35:30.336Z,99278.31
2023-06-18T08:38:18.086Z,99280.41
2023-06-18T08:41:06.942Z,99285.00
2023-06-18T08:43:56.145Z,99295.06
2023-06-18T08:46:45.028Z,99269.22
2023-06-18T08:49:33.139Z,99290.03
2023-06-18T08:52:21.929Z,99278.38
2023-06-18T08:55:14.948Z,99289.59
2023-06-18T08:58:07.656Z,99288.38
2023-06-18T09:00:56.876Z,99286.88
2023-06-18T09:03:45.349Z,99292.06
2023-06-18T09:06:33.320Z,99290.41
2023-06-18T09:09:22.213Z,99265.78
2023-06-18T09:12:11.499Z,99283.06
2023-06-18T09:14:59.562Z,99283.63
2023-06-18T09:17:52.956Z,99285.69
2023-06-18T09:20:41.696Z,99282.13
2023-06-18T09:23:29.460Z,99284.84
2023-06-18T09:26:18.823Z,99284.19
2023-06-18T09:29:07.291Z,99277.44
2023-06-18T09:31:54.892Z,99284.47
2023-06-18T09:34:45.383Z,99284.63
2023-06-18T09:37:34.158Z,99286.22
2023-06-18T09:40:23.852Z,99282.91
2023-06-18T09:43:12.596Z,99287.56
2023-06-18T09:46:00.482Z,99282.47
2023-06-18T09:48:49.035Z,99288.09
2023-06-18T09:51:42.237Z,99276.22
2023-06-18T09:54:41.314Z,99281.84
2023-06-18T09:57:29.010Z,99279.84
2023-06-18T10:00:18.094Z,99281.53
2023-06-18T10:03:07.581Z,99267.50
2023-06-18T10:05:55.631Z,99275.38
2023-06-18T10:08:46.560Z,99281.16
2023-06-18T10:11:35.650Z,99279.00
2023-06-18T10:14:25.366Z,99280.06
2023-06-18T10:17:21.355Z,99270.63
2023-06-18T10:20:11.448Z,99275.34
2023-06-18T10:23:02.669Z,99269.72
2023-06-18T10:25:52.683Z,99261.66
2023-06-18T10:28:40.568Z,99262.50
2023-06-18T10:31:28.796Z,99255.66
2023-06-18T10:34:17.315Z,99260.03
2023-06-18T10:37:06.197Z,99242.66
2023-06-18T10:39:55.075Z,99242.38
2023-06-18T10:42:49.973Z,99248.84
2023-06-18T10:45:38.223Z,99246.19
2023-06-18T10:48:28.987Z,99233.72
2023-06-18T10:51:18.603Z,99232.34
2023-06-18T10:54:23.419Z,99230.88
2023-06-18T10:57:12.648Z,99235.13
2023-06-18T11:00:02.030Z,99227.41
2023-06-18T11:02:58.818Z,99229.16
2023-06-18T11:05:48.818Z,99229.59
2023-06-18T11:08:38.715Z,99226.44
2023-06-18T11:11:27.327Z,99214.50
2023-06-18T11:14:22.220Z,99222.16
2023-06-18T11:17:12.432Z,99217.00
2023-06-18T11:20:00.930Z,99224.06
2023-06-18T11:22:49.715Z,99223.41
2023-06-18T11:25:37.631Z,99208.84
2023-06-18T11:28:26.994Z,99208.63
2023-06-18T11:31:15.546Z,99207.50
2023-06-18T11:34:08.941Z,99204.75
2023-06-18T11:36:56.996Z,99211.53
2023-06-18T11:39:45.131Z,99184.75
2023-06-18T11:42:33.095Z,99198.22
2023-06-18T11:45:22.650Z,99192.75
2023-06-18T11:48:11.217Z,99190.88
2023-06-18T11:51:00.335Z,99187.63
2023-06-18T11:53:48.533Z,99182.19
2023-06-18T11:56:36.448Z,99173.44
2023-06-18T11:59:24.364Z,99179.72
2023-06-18T12:02:13.459Z,99176.19
2023-06-18T12:05:03.891Z,99168.47
2023-06-18T12:07:53.279Z,99164.81
2023-06-18T12:10:42.297Z,99166.94
2023-06-18T12:13:36.407Z,99179.53
2023-06-18T12:16:30.178Z,99178.25
2023-06-18T12:19:20.300Z,99175.22
2023-06-18T12:22:09.639Z,99189.47
2023-06-18T12:24:58.959Z,99185.34
2023-06-18T12:27:46.813Z,99178.78
2023-06-18T12:30:37.749Z,99183.56
2023-06-18T12:33:25.596Z,99184.50
2023-06-18T12:36:13.682Z,99179.97
2023-06-18T12:39:01.388Z,99180.25
2023-06-18T12:41:50.670Z,99185.47
2023-06-18T12:44:38.569Z,99180.59
2023-06-18T12:47:26.808Z,99182.47
2023-06-18T12:50:14.833Z,99178.81
2023-06-18T12:53:16.787Z,99172.78
2023-06-18T12:56:18.976Z,99194.13
2023-06-18T12:59:17.745Z,99188.31
2023-06-18T13:02:06.507Z,99193.22
2023-06-18T13:04:55.120Z,99183.72
2023-06-18T13:07:50.515Z,99182.78
2023-06-18T13:10:38.270Z,99185.47
2023-06-18T13:13:26.380Z,99177.88
2023-06-18T13:16:15.774Z,99185.25
2023-06-18T13:19:06.119Z,99185.25
2023-06-18T13:21:54.729Z,99179.56
2023-06-18T13:24:42.560Z,99175.78
2023-06-18T13:27:30.746Z,99181.25
2023-06-18T13:30:18.563Z,99185.16
2023-06-18T13:33:08.163Z,99178.59
2023-06-18T13:35:56.246Z,99173.03
2023-06-18T13:38:44.303Z,99177.78
2023-06-18T13:41:32.122Z,99178.84
2023-06-18T13:44:20.121Z,99178.72
2023-06-18T13:47:08.356Z,99180.97
2023-06-18T13:49:57.405Z,99178.34
2023-06-18T13:52:45.209Z,99180.63
2023-06-18T13:55:32.905Z,99170.25
2023-06-18T13:58:21.384Z,99174.19
2023-06-18T14:01:09.345Z,99176.81
2023-06-18T14:03:57.309Z,99174.09
2023-06-18T14:06:47.039Z,99175.31
2023-06-18T14:09:35.086Z,99174.69
2023-06-18T14:12:22.955Z,99171.00
2023-06-18T14:15:14.379Z,99171.69
2023-06-18T14:18:02.211Z,99159.84
2023-06-18T14:20:50.250Z,99178.63
2023-06-18T14:23:40.989Z,99173.88
2023-06-18T14:26:29.640Z,99168.41
2023-06-18T14:29:17.858Z,99165.34
2023-06-18T14:32:06.122Z,99171.00
2023-06-18T14:34:54.164Z,99168.88
2023-06-18T14:37:41.950Z,99168.72
2023-06-18T14:40:31.326Z,99163.91
2023-06-18T14:43:19.097Z,99169.38
2023-06-18T14:46:06.974Z,99170.22
2023-06-18T14:48:54.891Z,99172.56
2023-06-18T14:51:42.608Z,99174.59
2023-06-18T14:54:30.469Z,99172.91
2023-06-18T14:57:20.468Z,99155.72
2023-06-18T15:00:10.332Z,99155.16
2023-06-18T15:02:58.235Z,99177.78
2023-06-18T15:05:46.285Z,99181.22
2023-06-18T15:08:35.377Z,99168.88
2023-06-18T15:11:23.638Z,99163.81
2023-06-18T15:14:12.860Z,99169.03
2023-06-18T15:17:00.709Z,99168.63
2023-06-18T15:19:56.380Z,99173.16
2023-06-18T15:22:44.281Z,99165.22
2023-06-18T15:25:32.313Z,99141.38
2023-06-18T15:28:20.208Z,99140.41
2023-06-18T15:31:11.848Z,99133.78
2023-06-18T15:33:59.671Z,99166.50
2023-06-18T15:36:47.396Z,99149.28
2023-06-18T15:39:35.303Z,99172.69
2023-06-18T15:42:23.139Z,99176.72
2023-06-18T15:45:11.766Z,99179.31
2023-06-18T15:48:00.853Z,99189.53
2023-06-18T15:50:49.356Z,99180.28
2023-06-18T15:53:37.125Z,99176.34
2023-06-18T15:56:25.467Z,99168.41
2023-06-18T15:59:14.010Z,99192.84
2023-06-18T16:02:02.968Z,99192.13
2023-06-18T16:04:52.295Z,99198.06
2023-06-18T16:07:40.766Z,99198.31
2023-06-18T16:10:28.822Z,99199.72
2023-06-18T16:13:16.761Z,99199.25
2023-06-18T16:16:04.727Z,99216.22
2023-06-18T16:18:52.390Z,99211.59
2023-06-18T16:21:41.768Z,99204.50
2023-06-18T16:24:29.690Z,99208.03
2023-06-18T16:27:17.650Z,99215.03
2023-06-18T16:30:06.120Z,99192.22
2023-06-18T16:32:53.984Z,99217.53
2023-06-18T16:35:41.849Z,99227.69
2023-06-18T16:38:31.196Z,99234.13
2023-06-18T16:41:18.975Z,99232.06
2023-06-18T16:44:06.824Z,99232.41
2023-06-18T16:46:54.614Z,99230.88
2023-06-18T16:49:42.370Z,99243.88
2023-06-18T16:52:30.276Z,99240.66
2023-06-18T16:55:19.912Z,99240.94
2023-06-18T16:58:10.001Z,99242.13
2023-06-18T17:00:57.806Z,99240.06
2023-06-18T17:03:45.836Z,99241.09
2023-06-18T17:06:34.750Z,99225.28
2023-06-18T17:09:22.596Z,99243.53
2023-06-18T17:12:11.735Z,99245.19
2023-06-18T17:14:59.441Z,99244.97
2023-06-18T17:17:47.159Z,99236.72
2023-06-18T17:20:35.268Z,99235.44
2023-06-18T17:23:22.999Z,99251.72
2023-06-18T17:26:11.410Z,99249.16
2023-06-18T17:29:00.830Z,99255.63
2023-06-18T17:31:48.520Z,99254.59
2023-06-18T17:34:36.424Z,99255.75
2023-06-18T17:37:24.251Z,99199.09
2023-06-18T17:40:12.588Z,99262.38
2023-06-18T17:43:00.373Z,99259.22
2023-06-18T17:45:49.610Z,99260.28
2023-06-18T17:48:37.459Z,99261.03
2023-06-18T17:51:25.303Z,99270.63
2023-06-18T17:54:14.244Z,99277.00
2023-06-18T17:57:02.184Z,99272.97
2023-06-18T17:59:50.029Z,99277.97
2023-06-18T18:02:39.168Z,99275.69
2023-06-18T18:05:29.214Z,99285.81
2023-06-18T18:08:17.008Z,99293.72
2023-06-18T18:11:05.065Z,99291.81
2023-06-18T18:13:52.796Z,99298.53
2023-06-18T18:16:40.627Z,99293.94
2023-06-18T18:19:29.838Z,99299.25
2023-06-18T18:22:19.462Z,99302.88
2023-06-18T18:25:07.908Z,99300.81
2023-06-18T18:27:55.714Z,99308.81
2023-06-18T18:30:45.109Z,99316.13
2023-06-18T18:33:32.798Z,99321.91
2023-06-18T18:36:22.187Z,99328.91
2023-06-18T18:39:10.041Z,99322.88
2023-06-18T18:41:58.022Z,99322.09
2023-06-18T18:44:48.507Z,99328.53
2023-06-18T18:47:36.333Z,99330.88
2023-06-18T18:50:24.704Z,99333.53
2023-06-18T18:53:14.032Z,99331.19
2023-06-18T18:56:01.802Z,99323.91
2023-06-18T18:58:50.041Z,99347.84
2023-06-18T19:01:42.781Z,99340.84
2023-06-18T19:04:30.794Z,99350.09
2023-06-18T19:07:18.730Z,99354.38
2023-06-18T19:10:11.916Z,99356.72
2023-06-18T19:12:59.659Z,99365.88
2023-06-18T19:15:47.583Z,99368.38
2023-06-18T19:18:35.327Z,99369.69
2023-06-18T19:21:23.291Z,99366.91
2023-06-18T19:24:11.094Z,99367.75
2023-06-18T19:27:00.466Z,99378.38
2023-06-18T19:29:48.439Z,99374.41
2023-06-18T19:32:36.514Z,99364.72
2023-06-18T19:35:24.628Z,99377.06
2023-06-18T19:38:12.648Z,99370.19
2023-06-18T19:41:00.470Z,99384.06
2023-06-18T19:43:49.743Z,99379.03
2023-06-18T19:49:25.455Z,99371.06
2023-06-18T19:52:13.478Z,99374.16
2023-06-18T19:55:01.183Z,99365.81
2023-06-18T19:57:49.333Z,99360.59
2023-06-18T20:00:39.569Z,99376.66
2023-06-18T20:03:27.493Z,99366.59
2023-06-18T20:06:15.545Z,99363.44
2023-06-18T20:09:03.371Z,99361.00
2023-06-18T20:11:51.141Z,99363.00
2023-06-18T20:14:38.861Z,99374.72
2023-06-18T20:17:28.350Z,99358.81
2023-06-18T20:20:18.266Z,99385.53
2023-06-18T20:23:06.111Z,99377.31
2023-06-18T20:25:53.829Z,99381.13
2023-06-18T20:28:41.783Z,99388.84
2023-06-18T20:31:29.836Z,99329.88
2023-06-18T20:34:19.173Z,99391.91
2023-06-18T20:37:08.037Z,99401.72
2023-06-18T20:39:56.042Z,99406.06
2023-06-18T20:42:43.824Z,99407.16
2023-06-18T20:45:31.581Z,99392.75
2023-06-18T20:48:19.488Z,99392.44
2023-06-18T20:51:08.593Z,99392.72
2023-06-18T20:53:59.771Z,99393.69
2023-06-18T20:56:47.675Z,99393.75
2023-06-18T20:59:35.680Z,99395.81
2023-06-18T21:02:24.839Z,99395.44
2023-06-18T21:05:13.375Z,99406.84
2023-06-18T21:08:02.994Z,99403.78
2023-06-18T21:10:50.953Z,99395.22
2023-06-18T21:13:39.101Z,99391.91
2023-06-18T21:16:27.262Z,99397.97
2023-06-18T21:19:15.599Z,99391.69
2023-06-18T21:22:15.591Z,99392.75
2023-06-18T21:25:07.645Z,99384.81
2023-06-18T21:28:03.263Z,99386.28
2023-06-18T21:30:51.515Z,99391.09
2023-06-18T21:33:39.695Z,99398.59
2023-06-18T21:36:27.693Z,99403.59
2023-06-18T21:39:15.638Z,99399.00
2023-06-18T21:42:07.886Z,99404.03
2023-06-18T21:44:55.881Z,99405.28
2023-06-18T21:47:44.168Z,99396.50
2023-06-18T21:50:34.701Z,99398.59
2023-06-18T21:53:25.934Z,99392.13
2023-06-18T21:56:14.009Z,99393.59
2023-06-18T21:59:05.717Z,99404.25
2023-06-18T22:01:55.383Z,99405.88
2023-06-18T22:04:43.534Z,99407.56
2023-06-18T22:07:32.931Z,99401.94
2023-06-18T22:10:21.092Z,99411.72
2023-06-18T22:13:09.461Z,99408.84
2023-06-18T22:15:58.780Z,99415.09
2023-06-18T22:18:47.769Z,99376.47
2023-06-18T22:21:35.673Z,99412.16
2023-06-18T22:24:23.728Z,99400.88
2023-06-18T22:27:11.629Z,99408.81
2023-06-18T22:30:00.559Z,99378.56
2023-06-18T22:32:49.933Z,99410.06
2023-06-18T22:35:38.748Z,99407.16
2023-06-18T22:38:29.776Z,99406.94
2023-06-18T22:41:18.244Z,99406.09
2023-06-18T22:44:07.495Z,99404.63
2023-06-18T22:46:55.411Z,99403.38
2023-06-18T22:49:44.818Z,99396.09
2023-06-18T22:52:32.723Z,99405.88
2023-06-18T22:58:09.598Z,99397.38
2023-06-18T23:00:57.587Z,99398.59
2023-06-18T23:03:45.690Z,99386.91
2023-06-18T23:06:35.145Z,99380.31
2023-06-18T23:09:23.220Z,99379.91
2023-06-18T23:12:11.576Z,99381.16
2023-06-18T23:14:59.357Z,99390.16
2023-06-18T23:17:47.391Z,99388.09
2023-06-18T23:20:35.422Z,99390.34
2023-06-18T23:23:30.876Z,99362.06
2023-06-18T23:26:20.765Z,99353.03
2023-06-18T23:29:10.875Z,99393.16
2023-06-18T23:31:59.103Z,99387.28
2023-06-18T23:34:47.282Z,99393.50
2023-06-18T23:37:36.673Z,99401.28
2023-06-18T23:40:26.482Z,99392.59
2023-06-18T23:43:14.666Z,99396.41
2023-06-18T23:46:02.744Z,99400.56
2023-06-18T23:48:50.740Z,99390.78
2023-06-18T23:51:39.701Z,99392.84
2023-06-18T23:54:27.654Z,99390.34
2023-06-18T23:57:17.221Z,99391.88
